createdAt,value
2022-11-19T00:00:19.380Z,1.00
2022-11-19T00:05:19.245Z,1.00
2022-11-19T00:07:48.748Z,1.00
2022-11-19T00:10:18.714Z,1.00
2022-11-19T00:15:26.319Z,1.00
2022-11-19T00:17:58.359Z,99.90
2022-11-19T00:20:28.001Z,99.90
2022-11-19T00:22:58.513Z,99.90
2022-11-19T00:25:32.247Z,99.90
2022-11-19T00:28:00.954Z,99.90
2022-11-19T00:33:20.141Z,99.90
2022-11-19T00:35:49.992Z,99.90
2022-11-19T00:38:19.488Z,99.90
2022-11-19T00:40:49.006Z,99.90
2022-11-19T00:43:35.811Z,99.90
2022-11-19T00:46:04.216Z,99.90
2022-11-19T00:48:34.274Z,99.90
2022-11-19T00:51:05.386Z,99.90
2022-11-19T00:53:33.682Z,99.90
2022-11-19T00:56:02.892Z,99.90
2022-11-19T00:58:31.379Z,99.90
2022-11-19T01:01:00.968Z,99.90
2022-11-19T01:03:30.782Z,99.90
2022-11-19T01:06:01.922Z,99.90
2022-11-19T01:08:31.065Z,99.90
2022-11-19T01:13:37.315Z,99.90
2022-11-19T01:16:11.435Z,99.90
2022-11-19T01:18:41.445Z,99.90
2022-11-19T01:21:13.395Z,99.90
2022-11-19T01:23:43.454Z,99.90
2022-11-19T01:26:14.197Z,99.90
2022-11-19T01:28:43.528Z,99.90
2022-11-19T01:31:17.278Z,99.90
2022-11-19T01:36:22.154Z,99.90
2022-11-19T01:38:52.260Z,99.90
2022-11-19T01:41:22.133Z,99.90
2022-11-19T01:43:53.275Z,99.90
2022-11-19T01:46:25.893Z,99.90
2022-11-19T01:48:59.822Z,99.90
2022-11-19T01:51:37.798Z,99.90
2022-11-19T01:54:16.716Z,99.90
2022-11-19T01:56:47.448Z,99.90
2022-11-19T01:59:19.913Z,99.90
2022-11-19T02:01:48.580Z,99.90
2022-11-19T02:04:21.886Z,99.90
2022-11-19T02:06:53.435Z,99.90
2022-11-19T02:09:22.287Z,99.90
2022-11-19T02:12:19.735Z,99.90
2022-11-19T02:15:17.874Z,99.90
2022-11-19T02:18:15.463Z,99.90
2022-11-19T02:21:13.966Z,99.90
2022-11-19T02:24:22.255Z,88.30
2022-11-19T02:27:42.517Z,95.10
2022-11-19T02:30:17.696Z,99.90
2022-11-19T02:33:00.339Z,99.90
2022-11-19T02:35:50.421Z,60.80
2022-11-19T02:38:33.943Z,49.80
2022-11-19T02:44:19.627Z,49.00
2022-11-19T02:46:55.591Z,48.70
2022-11-19T02:49:32.745Z,48.70
2022-11-19T02:52:02.715Z,90.00
2022-11-19T02:54:30.957Z,86.60
2022-11-19T02:57:00.493Z,79.90
2022-11-19T03:02:43.807Z,59.80
2022-11-19T03:05:20.161Z,17.20
2022-11-19T03:07:49.016Z,49.30
2022-11-19T03:10:22.300Z,6.90
2022-11-19T03:12:56.045Z,1.70
2022-11-19T03:21:06.107Z,48.70
2022-11-19T03:23:41.260Z,48.60
2022-11-19T03:26:22.097Z,1.00
2022-11-19T03:28:53.954Z,1.00
2022-11-19T03:31:26.200Z,40.00
2022-11-19T03:34:00.492Z,29.50
2022-11-19T03:39:11.547Z,27.50
2022-11-19T03:41:42.741Z,1.00
2022-11-19T03:44:19.519Z,1.00
2022-11-19T03:49:31.660Z,1.00
2022-11-19T03:52:09.451Z,1.00
2022-11-19T03:54:38.919Z,1.00
2022-11-19T03:57:11.904Z,14.20
2022-11-19T03:59:40.266Z,21.30
2022-11-19T04:02:11.232Z,1.00
2022-11-19T04:07:16.940Z,1.00
2022-11-19T04:09:45.664Z,47.50
2022-11-19T04:12:18.617Z,1.00
2022-11-19T04:14:48.604Z,48.40
2022-11-19T04:17:21.470Z,49.90
2022-11-19T04:19:52.324Z,21.30
2022-11-19T04:22:21.819Z,81.80
2022-11-19T04:27:21.204Z,94.60
2022-11-19T04:32:21.244Z,99.90
2022-11-19T04:34:52.097Z,47.20
2022-11-19T04:37:21.609Z,99.90
2022-11-19T04:39:49.938Z,99.90
2022-11-19T04:42:19.424Z,99.90
2022-11-19T04:44:48.977Z,99.90
2022-11-19T04:47:18.527Z,99.90
2022-11-19T04:49:46.811Z,99.90
2022-11-19T05:07:11.775Z,99.90
2022-11-19T05:09:41.407Z,99.90
2022-11-19T05:12:12.118Z,99.90
2022-11-19T05:17:10.330Z,99.90
2022-11-19T05:19:39.790Z,99.90
2022-11-19T05:22:09.315Z,99.90
2022-11-19T05:24:37.599Z,99.90
2022-11-19T05:27:08.498Z,46.70
2022-11-19T05:29:36.749Z,99.30
2022-11-19T05:32:06.636Z,92.90
2022-11-19T05:34:36.162Z,87.50
2022-11-19T05:37:04.464Z,84.40
2022-11-19T05:39:32.744Z,68.80
2022-11-19T05:42:02.290Z,50.30
2022-11-19T05:44:33.128Z,47.00
2022-11-19T05:47:03.760Z,46.80
2022-11-19T05:49:32.050Z,46.60
2022-11-19T05:52:00.435Z,46.50
2022-11-19T05:56:59.944Z,46.40
2022-11-19T06:02:00.032Z,1.00
2022-11-19T06:04:28.353Z,16.40
2022-11-19T06:06:57.931Z,44.80
2022-11-19T06:09:26.244Z,35.00
2022-11-19T06:11:54.627Z,27.90
2022-11-19T06:14:28.102Z,14.30
2022-11-19T06:17:00.120Z,23.10
2022-11-19T06:19:29.619Z,19.80
2022-11-19T06:24:29.945Z,10.50
2022-11-19T06:26:58.232Z,8.20
2022-11-19T06:29:27.929Z,1.80
2022-11-19T06:31:57.481Z,1.00
2022-11-19T06:34:27.177Z,1.00
2022-11-19T06:36:55.561Z,1.00
2022-11-19T06:39:23.914Z,1.00
2022-11-19T06:41:53.493Z,1.00
2022-11-19T06:44:21.789Z,1.00
2022-11-19T06:46:51.358Z,1.00
2022-11-19T06:49:20.500Z,1.00
2022-11-19T06:51:51.550Z,1.00
2022-11-19T06:54:19.993Z,1.00
2022-11-19T06:56:49.473Z,1.00
2022-11-19T06:59:19.328Z,1.00
2022-11-19T07:04:17.724Z,1.00
2022-11-19T07:09:19.230Z,1.00
2022-11-19T07:11:49.082Z,1.00
2022-11-19T07:14:18.633Z,1.00
2022-11-19T07:24:19.219Z,1.00
2022-11-19T07:26:49.884Z,1.00
2022-11-19T07:34:22.050Z,1.00
2022-11-19T07:39:23.377Z,1.00
2022-11-19T07:42:11.912Z,1.00
2022-11-19T07:44:42.327Z,1.00
2022-11-19T07:47:12.214Z,1.00
2022-11-19T07:54:40.342Z,12.40
2022-11-19T07:57:08.921Z,1.60
2022-11-19T07:59:38.493Z,1.00
2022-11-19T08:04:36.755Z,1.00
2022-11-19T08:12:09.304Z,1.00
2022-11-19T08:14:37.592Z,1.00
2022-11-19T08:17:24.673Z,1.00
2022-11-19T08:24:51.552Z,1.00
2022-11-19T08:27:22.469Z,1.00
2022-11-19T08:32:21.914Z,1.00
2022-11-19T08:34:51.491Z,1.00
2022-11-19T08:42:44.881Z,1.00
2022-11-19T08:47:50.368Z,1.00
2022-11-19T08:52:57.648Z,1.00
2022-11-19T08:55:29.727Z,1.00
2022-11-19T08:58:03.155Z,1.00
2022-11-19T09:00:32.826Z,1.00
2022-11-19T09:03:03.609Z,1.00
2022-11-19T09:05:33.098Z,1.00
2022-11-19T09:10:31.482Z,1.00
2022-11-19T09:18:04.161Z,1.00
2022-11-19T09:20:33.668Z,1.00
2022-11-19T09:23:04.493Z,1.00
2022-11-19T09:25:33.029Z,1.00
2022-11-19T09:28:04.322Z,1.00
2022-11-19T09:30:33.816Z,1.00
2022-11-19T09:33:02.273Z,1.00
2022-11-19T09:35:31.841Z,1.00
2022-11-19T09:45:58.116Z,1.00
2022-11-19T09:51:12.381Z,1.00
2022-11-19T09:53:49.748Z,1.00
2022-11-19T09:56:28.697Z,1.00
2022-11-19T09:59:01.167Z,1.00
2022-11-19T10:01:30.349Z,1.00
2022-11-19T10:04:02.094Z,1.00
2022-11-19T10:09:32.372Z,1.00
2022-11-19T10:12:21.469Z,1.00
2022-11-19T10:15:13.726Z,1.00
2022-11-19T10:20:55.400Z,1.00
2022-11-19T10:26:07.759Z,1.00
2022-11-19T10:28:41.818Z,1.00
2022-11-19T10:33:55.286Z,1.00
2022-11-19T10:36:32.274Z,1.00
2022-11-19T10:41:45.555Z,1.00
2022-11-19T10:44:40.296Z,1.00
2022-11-19T10:47:20.397Z,1.00
2022-11-19T10:55:17.176Z,1.00
2022-11-19T10:57:51.011Z,1.00
2022-11-19T11:10:35.119Z,1.00
2022-11-19T11:18:47.119Z,1.00
2022-11-19T11:21:30.470Z,1.00
2022-11-19T11:26:35.141Z,1.00
2022-11-19T11:29:09.809Z,1.00
2022-11-19T11:31:42.546Z,1.00
2022-11-19T11:37:03.114Z,1.00
2022-11-19T11:42:17.598Z,1.00
2022-11-19T11:52:43.908Z,1.00
2022-11-19T11:55:33.670Z,1.00
2022-11-19T11:58:06.465Z,1.00
2022-11-19T12:00:39.165Z,1.00
2022-11-19T12:03:11.957Z,1.00
2022-11-19T12:05:54.361Z,1.00
2022-11-19T12:08:45.392Z,1.00
2022-11-19T12:11:23.907Z,1.00
2022-11-19T12:14:01.018Z,1.00
2022-11-19T12:16:46.100Z,1.00
2022-11-19T12:22:23.401Z,1.00
2022-11-19T12:25:27.032Z,1.00
2022-11-19T12:28:26.573Z,1.00
2022-11-19T12:31:13.020Z,1.00
2022-11-19T12:34:02.470Z,1.00
2022-11-19T12:36:44.372Z,1.00
2022-11-19T12:39:34.107Z,1.00
2022-11-19T12:42:33.075Z,1.00
2022-11-19T12:45:16.618Z,1.00
2022-11-19T12:48:15.422Z,1.00
2022-11-19T12:50:53.335Z,1.00
2022-11-19T13:01:45.046Z,1.00
2022-11-19T13:04:20.163Z,1.00
2022-11-19T13:06:58.191Z,1.00
2022-11-19T13:12:16.233Z,1.00
2022-11-19T13:14:54.868Z,1.00
2022-11-19T13:17:30.004Z,1.00
2022-11-19T13:20:08.567Z,1.00
2022-11-19T13:22:42.104Z,1.00
2022-11-19T13:27:56.397Z,1.00
2022-11-19T13:35:44.460Z,1.00
2022-11-19T13:38:22.198Z,1.00
2022-11-19T13:43:45.244Z,1.00
2022-11-19T13:46:24.108Z,1.00
2022-11-19T13:49:02.868Z,1.00
2022-11-19T13:51:39.056Z,1.00
2022-11-19T13:54:09.996Z,1.00
2022-11-19T13:59:38.036Z,1.00
2022-11-19T14:02:39.945Z,1.00
2022-11-19T14:05:43.199Z,1.00
2022-11-19T14:14:32.744Z,1.00
2022-11-19T14:17:32.181Z,1.00
2022-11-19T14:20:20.639Z,1.00
2022-11-19T14:28:48.281Z,1.00
2022-11-19T14:36:47.397Z,1.00
2022-11-19T14:39:25.879Z,1.00
2022-11-19T14:44:47.868Z,1.00
2022-11-19T14:47:46.095Z,1.00
2022-11-19T14:50:29.141Z,1.00
2022-11-19T14:53:02.117Z,1.00
2022-11-19T14:55:31.950Z,1.00
2022-11-19T14:58:03.361Z,1.00
2022-11-19T15:00:36.534Z,1.00
2022-11-19T15:03:14.413Z,1.00
2022-11-19T15:05:47.412Z,1.00
2022-11-19T15:08:48.169Z,1.00
2022-11-19T15:13:49.185Z,1.00
2022-11-19T15:16:22.236Z,1.00
2022-11-19T15:19:36.440Z,1.00
2022-11-19T15:22:32.286Z,1.00
2022-11-19T15:25:31.387Z,1.00
2022-11-19T15:28:17.715Z,1.00
2022-11-19T15:31:18.247Z,1.00
2022-11-19T15:36:44.001Z,1.00
2022-11-19T15:39:20.028Z,1.00
2022-11-19T15:44:38.430Z,1.00
2022-11-19T15:47:14.785Z,1.00
2022-11-19T15:54:53.090Z,1.00
2022-11-19T15:57:27.401Z,1.00
2022-11-19T16:00:02.118Z,1.00
2022-11-19T16:05:23.790Z,1.00
2022-11-19T16:07:54.275Z,1.00
2022-11-19T16:13:20.182Z,1.00
2022-11-19T16:18:47.220Z,1.00
2022-11-19T16:29:19.465Z,1.00
2022-11-19T16:31:50.767Z,1.00
2022-11-19T16:39:27.374Z,1.00
2022-11-19T16:42:19.024Z,1.00
2022-11-19T16:47:28.137Z,1.00
2022-11-19T16:52:43.663Z,1.00
2022-11-19T16:55:51.664Z,1.00
2022-11-19T17:00:59.702Z,1.00
2022-11-19T17:22:00.759Z,1.00
2022-11-19T17:27:05.512Z,1.00
2022-11-19T17:34:47.372Z,1.00
2022-11-19T17:37:16.112Z,1.00
2022-11-19T17:39:46.877Z,1.00
2022-11-19T17:42:33.820Z,1.00
2022-11-19T17:45:10.555Z,1.00
2022-11-19T17:50:09.893Z,1.00
2022-11-19T17:55:17.658Z,1.00
2022-11-19T17:57:45.925Z,1.00
2022-11-19T18:00:17.670Z,1.00
2022-11-19T18:02:48.666Z,1.00
2022-11-19T18:05:22.106Z,1.00
2022-11-19T18:10:20.199Z,1.00
2022-11-19T18:15:23.006Z,1.00
2022-11-19T18:20:23.077Z,1.00
2022-11-19T18:25:23.066Z,1.00
2022-11-19T18:30:22.592Z,1.00
2022-11-19T18:35:22.409Z,1.00
2022-11-19T18:37:50.705Z,1.00
2022-11-19T18:40:19.215Z,1.00
2022-11-19T18:45:32.895Z,1.00
2022-11-19T18:48:01.150Z,1.00
2022-11-19T18:50:31.905Z,1.00
2022-11-19T18:53:00.138Z,1.00
2022-11-19T18:55:30.876Z,1.00
2022-11-19T18:57:59.105Z,1.00
2022-11-19T19:03:01.141Z,1.00
2022-11-19T19:05:30.672Z,1.00
2022-11-19T19:07:59.481Z,1.00
2022-11-19T19:10:30.158Z,1.00
2022-11-19T19:12:58.636Z,1.00
2022-11-19T19:23:06.958Z,1.00
2022-11-19T19:25:35.570Z,1.00
2022-11-19T19:28:05.644Z,1.00
2022-11-19T19:30:35.107Z,1.00
2022-11-19T19:35:33.606Z,1.00
2022-11-19T19:40:34.027Z,1.00
2022-11-19T19:48:07.160Z,1.00
2022-11-19T19:50:35.434Z,1.00
2022-11-19T19:53:03.920Z,1.00
2022-11-19T19:55:33.477Z,1.00
2022-11-19T19:58:05.319Z,1.00
2022-11-19T20:00:34.786Z,1.00
2022-11-19T20:03:05.846Z,1.00
2022-11-19T20:05:36.599Z,1.00
2022-11-19T20:15:55.696Z,1.00
2022-11-19T20:18:26.224Z,1.00
2022-11-19T20:21:02.325Z,1.00
2022-11-19T20:23:31.394Z,1.00
2022-11-19T20:26:04.656Z,1.00
2022-11-19T20:28:32.737Z,1.00
2022-11-19T20:33:36.612Z,1.00
2022-11-19T20:38:40.940Z,1.00
2022-11-19T20:41:33.806Z,1.00
2022-11-19T20:46:51.383Z,1.00
2022-11-19T20:49:23.844Z,1.00
2022-11-19T20:54:26.000Z,1.00
2022-11-19T20:56:57.521Z,1.00
2022-11-19T20:59:28.183Z,1.00
2022-11-19T21:04:31.341Z,1.00
2022-11-19T21:07:02.113Z,1.00
2022-11-19T21:12:01.489Z,1.00
2022-11-19T21:14:29.777Z,1.00
2022-11-19T21:16:59.233Z,1.00
2022-11-19T21:19:30.090Z,1.00
2022-11-19T21:22:00.750Z,1.00
2022-11-19T21:24:29.007Z,1.00
2022-11-19T21:26:57.301Z,1.00
2022-11-19T21:31:56.552Z,1.00
2022-11-19T21:34:24.858Z,1.00
2022-11-19T21:36:54.908Z,1.00
2022-11-19T21:41:55.798Z,1.00
2022-11-19T21:44:25.265Z,1.00
2022-11-19T21:46:55.992Z,1.00
2022-11-19T21:51:56.285Z,1.00
2022-11-19T21:54:25.724Z,1.00
2022-11-19T21:56:56.387Z,1.00
2022-11-19T22:01:55.098Z,1.00
2022-11-19T22:04:23.484Z,1.00
2022-11-19T22:06:54.288Z,1.00
2022-11-19T22:09:22.977Z,1.00
2022-11-19T22:11:52.608Z,1.00
2022-11-19T22:14:20.836Z,1.00
2022-11-19T22:16:52.851Z,2.30
2022-11-19T22:24:22.340Z,1.00
2022-11-19T22:26:51.854Z,9.90
2022-11-19T22:29:21.886Z,11.30
2022-11-19T22:31:51.614Z,12.00
2022-11-19T22:36:49.783Z,3.30
2022-11-19T22:39:19.708Z,5.60
2022-11-19T22:41:49.726Z,4.10
2022-11-19T22:44:17.989Z,5.10
2022-11-19T22:46:47.490Z,5.30
2022-11-19T22:49:15.722Z,6.40
2022-11-19T22:51:46.523Z,7.80
2022-11-19T22:54:16.114Z,6.50
2022-11-19T22:56:46.954Z,6.10
2022-11-19T22:59:16.636Z,4.50
2022-11-19T23:01:46.111Z,9.40
2022-11-19T23:04:16.325Z,1.00
2022-11-19T23:09:13.194Z,19.80
2022-11-19T23:14:31.873Z,1.00
2022-11-19T23:17:01.340Z,33.60
2022-11-19T23:19:30.814Z,28.00
2022-11-19T23:22:01.523Z,28.40
2022-11-19T23:24:29.954Z,42.80
2022-11-19T23:29:27.993Z,35.30
2022-11-19T23:31:58.891Z,24.70
2022-11-19T23:34:27.176Z,21.70
2022-11-19T23:36:57.848Z,18.30
2022-11-19T23:39:26.097Z,20.60
2022-11-19T23:41:54.528Z,23.60
2022-11-19T23:44:24.028Z,32.50
2022-11-19T23:46:53.556Z,37.90
2022-11-19T23:49:23.549Z,40.30
2022-11-19T23:54:20.642Z,29.50
2022-11-19T23:56:51.323Z,32.70
2022-11-19T23:59:23.096Z,39.60
